sensor_id;sensor_type;location;lat;lon;timestamp;P1;durP1;ratioP1;P2;durP2;ratioP2
14121;SDS011;7139;48.114;11.442;2023-07-24T00:02:21;12.47;;;9.80;;
14121;SDS011;7139;48.114;11.442;2023-07-24T00:04:49;12.20;;;9.47;;
14121;SDS011;7139;48.114;11.442;2023-07-24T00:07:16;10.47;;;8.83;;
14121;SDS011;7139;48.114;11.442;2023-07-24T00:09:43;11.10;;;8.73;;
14121;SDS011;7139;48.114;11.442;2023-07-24T00:12:09;11.97;;;9.53;;
14121;SDS011;7139;48.114;11.442;2023-07-24T00:14:36;10.70;;;8.87;;
14121;SDS011;7139;48.114;11.442;2023-07-24T00:17:03;11.70;;;9.07;;
14121;SDS011;7139;48.114;11.442;2023-07-24T00:19:30;12.70;;;9.07;;
14121;SDS011;7139;48.114;11.442;2023-07-24T00:21:58;10.23;;;8.93;;
14121;SDS011;7139;48.114;11.442;2023-07-24T00:24:26;10.50;;;9.30;;
14121;SDS011;7139;48.114;11.442;2023-07-24T00:26:53;10.40;;;9.20;;
14121;SDS011;7139;48.114;11.442;2023-07-24T00:29:20;9.90;;;7.87;;
14121;SDS011;7139;48.114;11.442;2023-07-24T00:31:46;10.80;;;8.50;;
14121;SDS011;7139;48.114;11.442;2023-07-24T00:34:13;12.07;;;9.47;;
14121;SDS011;7139;48.114;11.442;2023-07-24T00:36:40;10.70;;;8.27;;
14121;SDS011;7139;48.114;11.442;2023-07-24T00:39:08;11.30;;;8.93;;
14121;SDS011;7139;48.114;11.442;2023-07-24T00:41:35;10.20;;;8.50;;
14121;SDS011;7139;48.114;11.442;2023-07-24T00:44:02;10.33;;;8.77;;
14121;SDS011;7139;48.114;11.442;2023-07-24T00:46:28;11.50;;;8.60;;
14121;SDS011;7139;48.114;11.442;2023-07-24T00:48:57;11.07;;;8.53;;
14121;SDS011;7139;48.114;11.442;2023-07-24T00:51:24;9.00;;;8.00;;
14121;SDS011;7139;48.114;11.442;2023-07-24T00:53:53;9.37;;;8.30;;
14121;SDS011;7139;48.114;11.442;2023-07-24T00:56:22;9.57;;;8.13;;
14121;SDS011;7139;48.114;11.442;2023-07-24T00:58:49;10.30;;;8.37;;
14121;SDS011;7139;48.114;11.442;2023-07-24T01:01:16;10.33;;;8.10;;
14121;SDS011;7139;48.114;11.442;2023-07-24T01:03:43;9.53;;;7.90;;
14121;SDS011;7139;48.114;11.442;2023-07-24T01:06:10;9.57;;;8.00;;
14121;SDS011;7139;48.114;11.442;2023-07-24T01:08:37;8.83;;;7.93;;
14121;SDS011;7139;48.114;11.442;2023-07-24T01:11:05;9.63;;;8.20;;
14121;SDS011;7139;48.114;11.442;2023-07-24T01:13:44;10.17;;;8.60;;
14121;SDS011;7139;48.114;11.442;2023-07-24T01:16:18;10.93;;;7.73;;
14121;SDS011;7139;48.114;11.442;2023-07-24T01:18:48;10.93;;;8.33;;
14121;SDS011;7139;48.114;11.442;2023-07-24T01:21:17;8.73;;;7.73;;
14121;SDS011;7139;48.114;11.442;2023-07-24T01:23:58;8.73;;;7.43;;
14121;SDS011;7139;48.114;11.442;2023-07-24T01:26:37;8.63;;;7.70;;
14121;SDS011;7139;48.114;11.442;2023-07-24T01:29:04;9.50;;;7.70;;
14121;SDS011;7139;48.114;11.442;2023-07-24T01:31:31;8.33;;;7.10;;
14121;SDS011;7139;48.114;11.442;2023-07-24T01:33:58;9.63;;;7.73;;
14121;SDS011;7139;48.114;11.442;2023-07-24T01:36:24;8.90;;;7.03;;
14121;SDS011;7139;48.114;11.442;2023-07-24T01:38:51;8.43;;;7.53;;
14121;SDS011;7139;48.114;11.442;2023-07-24T01:41:19;9.33;;;8.00;;
14121;SDS011;7139;48.114;11.442;2023-07-24T01:43:48;9.63;;;7.60;;
14121;SDS011;7139;48.114;11.442;2023-07-24T01:46:14;9.10;;;7.47;;
14121;SDS011;7139;48.114;11.442;2023-07-24T01:48:41;10.87;;;8.10;;
14121;SDS011;7139;48.114;11.442;2023-07-24T01:51:08;10.23;;;8.17;;
14121;SDS011;7139;48.114;11.442;2023-07-24T01:53:35;9.10;;;8.00;;
14121;SDS011;7139;48.114;11.442;2023-07-24T01:56:01;8.53;;;7.40;;
14121;SDS011;7139;48.114;11.442;2023-07-24T01:58:28;9.03;;;7.83;;
14121;SDS011;7139;48.114;11.442;2023-07-24T02:00:56;9.17;;;7.70;;
14121;SDS011;7139;48.114;11.442;2023-07-24T02:03:23;9.50;;;7.83;;
14121;SDS011;7139;48.114;11.442;2023-07-24T02:05:50;8.60;;;7.67;;
14121;SDS011;7139;48.114;11.442;2023-07-24T02:08:17;10.43;;;7.83;;
14121;SDS011;7139;48.114;11.442;2023-07-24T02:10:43;10.83;;;8.23;;
14121;SDS011;7139;48.114;11.442;2023-07-24T02:13:14;11.13;;;8.27;;
14121;SDS011;7139;48.114;11.442;2023-07-24T02:15:40;9.23;;;8.20;;
14121;SDS011;7139;48.114;11.442;2023-07-24T02:18:09;9.73;;;7.47;;
14121;SDS011;7139;48.114;11.442;2023-07-24T02:20:35;9.13;;;7.77;;
14121;SDS011;7139;48.114;11.442;2023-07-24T02:23:02;9.90;;;7.83;;
14121;SDS011;7139;48.114;11.442;2023-07-24T02:25:29;8.70;;;7.80;;
14121;SDS011;7139;48.114;11.442;2023-07-24T02:27:55;10.97;;;8.47;;
14121;SDS011;7139;48.114;11.442;2023-07-24T02:30:22;10.13;;;8.37;;
14121;SDS011;7139;48.114;11.442;2023-07-24T02:32:49;11.13;;;8.47;;
14121;SDS011;7139;48.114;11.442;2023-07-24T02:35:17;11.13;;;8.47;;
14121;SDS011;7139;48.114;11.442;2023-07-24T02:37:44;10.77;;;8.67;;
14121;SDS011;7139;48.114;11.442;2023-07-24T02:40:11;11.13;;;9.03;;
14121;SDS011;7139;48.114;11.442;2023-07-24T02:42:38;10.23;;;8.27;;
14121;SDS011;7139;48.114;11.442;2023-07-24T02:45:05;9.40;;;8.23;;
14121;SDS011;7139;48.114;11.442;2023-07-24T02:47:35;10.00;;;8.37;;
14121;SDS011;7139;48.114;11.442;2023-07-24T02:50:02;9.37;;;8.13;;
14121;SDS011;7139;48.114;11.442;2023-07-24T02:52:31;10.73;;;8.70;;
14121;SDS011;7139;48.114;11.442;2023-07-24T02:54:58;9.70;;;8.43;;
14121;SDS011;7139;48.114;11.442;2023-07-24T02:57:24;10.87;;;8.47;;
14121;SDS011;7139;48.114;11.442;2023-07-24T02:59:51;9.57;;;8.10;;
14121;SDS011;7139;48.114;11.442;2023-07-24T03:02:18;11.37;;;8.90;;
14121;SDS011;7139;48.114;11.442;2023-07-24T03:04:44;15.27;;;8.73;;
14121;SDS011;7139;48.114;11.442;2023-07-24T03:07:11;12.23;;;9.80;;
14121;SDS011;7139;48.114;11.442;2023-07-24T03:09:39;12.23;;;8.80;;
14121;SDS011;7139;48.114;11.442;2023-07-24T03:12:06;12.70;;;9.63;;
14121;SDS011;7139;48.114;11.442;2023-07-24T03:14:33;14.63;;;10.00;;
14121;SDS011;7139;48.114;11.442;2023-07-24T03:17:00;12.63;;;9.87;;
14121;SDS011;7139;48.114;11.442;2023-07-24T03:19:27;11.30;;;8.70;;
14121;SDS011;7139;48.114;11.442;2023-07-24T03:21:53;12.50;;;9.57;;
14121;SDS011;7139;48.114;11.442;2023-07-24T03:24:20;11.87;;;10.53;;
14121;SDS011;7139;48.114;11.442;2023-07-24T03:26:48;12.77;;;9.77;;
14121;SDS011;7139;48.114;11.442;2023-07-24T03:29:15;13.57;;;9.27;;
14121;SDS011;7139;48.114;11.442;2023-07-24T03:31:42;12.40;;;9.60;;
14121;SDS011;7139;48.114;11.442;2023-07-24T03:34:08;12.73;;;10.17;;
14121;SDS011;7139;48.114;11.442;2023-07-24T03:36:35;12.13;;;10.13;;
14121;SDS011;7139;48.114;11.442;2023-07-24T03:39:06;13.37;;;11.43;;
14121;SDS011;7139;48.114;11.442;2023-07-24T03:41:32;13.17;;;9.60;;
14121;SDS011;7139;48.114;11.442;2023-07-24T03:44:01;12.33;;;10.30;;
14121;SDS011;7139;48.114;11.442;2023-07-24T03:46:27;14.87;;;11.20;;
14121;SDS011;7139;48.114;11.442;2023-07-24T03:48:54;11.63;;;10.37;;
14121;SDS011;7139;48.114;11.442;2023-07-24T03:51:21;13.33;;;10.30;;
14121;SDS011;7139;48.114;11.442;2023-07-24T03:53:48;15.07;;;11.13;;
14121;SDS011;7139;48.114;11.442;2023-07-24T03:56:14;13.37;;;10.37;;
14121;SDS011;7139;48.114;11.442;2023-07-24T03:58:41;12.73;;;10.90;;
14121;SDS011;7139;48.114;11.442;2023-07-24T04:01:09;13.90;;;11.53;;
14121;SDS011;7139;48.114;11.442;2023-07-24T04:03:36;13.57;;;10.53;;
14121;SDS011;7139;48.114;11.442;2023-07-24T04:06:03;13.87;;;10.87;;
14121;SDS011;7139;48.114;11.442;2023-07-24T04:08:30;13.53;;;10.73;;
14121;SDS011;7139;48.114;11.442;2023-07-24T04:10:56;15.90;;;11.37;;
14121;SDS011;7139;48.114;11.442;2023-07-24T04:13:23;12.63;;;10.23;;
14121;SDS011;7139;48.114;11.442;2023-07-24T04:15:50;13.80;;;11.03;;
14121;SDS011;7139;48.114;11.442;2023-07-24T04:18:18;14.27;;;11.03;;
14121;SDS011;7139;48.114;11.442;2023-07-24T04:20:44;12.20;;;10.83;;
14121;SDS011;7139;48.114;11.442;2023-07-24T04:23:11;14.00;;;11.57;;
14121;SDS011;7139;48.114;11.442;2023-07-24T04:25:38;13.10;;;11.00;;
14121;SDS011;7139;48.114;11.442;2023-07-24T04:28:04;13.13;;;10.63;;
14121;SDS011;7139;48.114;11.442;2023-07-24T04:30:32;14.20;;;10.77;;
14121;SDS011;7139;48.114;11.442;2023-07-24T04:32:59;12.10;;;10.73;;
14121;SDS011;7139;48.114;11.442;2023-07-24T04:35:27;13.20;;;10.40;;
14121;SDS011;7139;48.114;11.442;2023-07-24T04:37:54;12.87;;;10.43;;
14121;SDS011;7139;48.114;11.442;2023-07-24T04:40:22;12.37;;;10.13;;
14121;SDS011;7139;48.114;11.442;2023-07-24T04:42:49;12.47;;;9.90;;
14121;SDS011;7139;48.114;11.442;2023-07-24T04:45:16;14.10;;;11.07;;
14121;SDS011;7139;48.114;11.442;2023-07-24T04:47:42;13.47;;;11.07;;
14121;SDS011;7139;48.114;11.442;2023-07-24T04:50:09;15.63;;;11.27;;
14121;SDS011;7139;48.114;11.442;2023-07-24T04:52:37;13.83;;;11.07;;
14121;SDS011;7139;48.114;11.442;2023-07-24T04:55:04;12.00;;;10.10;;
14121;SDS011;7139;48.114;11.442;2023-07-24T04:57:32;16.17;;;10.57;;
14121;SDS011;7139;48.114;11.442;2023-07-24T04:59:59;12.87;;;10.57;;
14121;SDS011;7139;48.114;11.442;2023-07-24T05:02:25;16.97;;;11.20;;
14121;SDS011;7139;48.114;11.442;2023-07-24T05:04:52;15.93;;;10.87;;
14121;SDS011;7139;48.114;11.442;2023-07-24T05:07:19;14.73;;;10.63;;
14121;SDS011;7139;48.114;11.442;2023-07-24T05:09:46;16.20;;;11.17;;
14121;SDS011;7139;48.114;11.442;2023-07-24T05:12:13;14.97;;;11.13;;
14121;SDS011;7139;48.114;11.442;2023-07-24T05:14:39;14.10;;;10.33;;
14121;SDS011;7139;48.114;11.442;2023-07-24T05:17:06;13.90;;;11.30;;
14121;SDS011;7139;48.114;11.442;2023-07-24T05:19:33;11.93;;;9.97;;
14121;SDS011;7139;48.114;11.442;2023-07-24T05:21:59;13.83;;;9.63;;
14121;SDS011;7139;48.114;11.442;2023-07-24T05:24:26;14.90;;;9.70;;
14121;SDS011;7139;48.114;11.442;2023-07-24T05:26:54;16.17;;;10.77;;
14121;SDS011;7139;48.114;11.442;2023-07-24T05:29:21;12.70;;;9.83;;
14121;SDS011;7139;48.114;11.442;2023-07-24T05:31:48;14.73;;;11.13;;
14121;SDS011;7139;48.114;11.442;2023-07-24T05:34:15;16.20;;;11.63;;
14121;SDS011;7139;48.114;11.442;2023-07-24T05:36:41;19.27;;;11.57;;
14121;SDS011;7139;48.114;11.442;2023-07-24T05:39:08;36.30;;;11.80;;
14121;SDS011;7139;48.114;11.442;2023-07-24T05:41:35;21.40;;;11.37;;
14121;SDS011;7139;48.114;11.442;2023-07-24T05:44:03;26.40;;;11.37;;
14121;SDS011;7139;48.114;11.442;2023-07-24T05:46:30;41.40;;;13.17;;
14121;SDS011;7139;48.114;11.442;2023-07-24T05:48:56;38.20;;;12.70;;
14121;SDS011;7139;48.114;11.442;2023-07-24T05:51:25;39.30;;;12.17;;
14121;SDS011;7139;48.114;11.442;2023-07-24T05:53:51;28.47;;;11.33;;
14121;SDS011;7139;48.114;11.442;2023-07-24T05:56:18;22.27;;;11.30;;
14121;SDS011;7139;48.114;11.442;2023-07-24T05:58:45;18.43;;;10.40;;
14121;SDS011;7139;48.114;11.442;2023-07-24T06:01:13;14.50;;;10.20;;
14121;SDS011;7139;48.114;11.442;2023-07-24T06:03:40;20.40;;;11.27;;
14121;SDS011;7139;48.114;11.442;2023-07-24T06:06:06;19.53;;;11.30;;
14121;SDS011;7139;48.114;11.442;2023-07-24T06:08:33;17.87;;;11.90;;
14121;SDS011;7139;48.114;11.442;2023-07-24T06:11:00;19.27;;;11.50;;
14121;SDS011;7139;48.114;11.442;2023-07-24T06:13:27;15.33;;;10.27;;
14121;SDS011;7139;48.114;11.442;2023-07-24T06:15:53;13.37;;;10.80;;
14121;SDS011;7139;48.114;11.442;2023-07-24T06:18:21;12.53;;;10.43;;
14121;SDS011;7139;48.114;11.442;2023-07-24T06:20:51;14.77;;;10.57;;
14121;SDS011;7139;48.114;11.442;2023-07-24T06:23:18;13.50;;;10.33;;
14121;SDS011;7139;48.114;11.442;2023-07-24T06:25:45;13.50;;;10.43;;
14121;SDS011;7139;48.114;11.442;2023-07-24T06:28:12;14.97;;;10.23;;
14121;SDS011;7139;48.114;11.442;2023-07-24T06:30:39;15.53;;;10.63;;
14121;SDS011;7139;48.114;11.442;2023-07-24T06:33:05;14.60;;;9.83;;
14121;SDS011;7139;48.114;11.442;2023-07-24T06:35:34;19.20;;;11.60;;
14121;SDS011;7139;48.114;11.442;2023-07-24T06:38:00;12.13;;;10.13;;
14121;SDS011;7139;48.114;11.442;2023-07-24T06:40:27;12.93;;;10.30;;
14121;SDS011;7139;48.114;11.442;2023-07-24T06:42:54;11.57;;;10.33;;
14121;SDS011;7139;48.114;11.442;2023-07-24T06:45:21;13.20;;;10.10;;
14121;SDS011;7139;48.114;11.442;2023-07-24T06:47:47;11.20;;;9.40;;
14121;SDS011;7139;48.114;11.442;2023-07-24T06:50:14;13.20;;;10.10;;
14121;SDS011;7139;48.114;11.442;2023-07-24T06:52:42;15.53;;;11.17;;
14121;SDS011;7139;48.114;11.442;2023-07-24T06:55:09;18.60;;;10.97;;
14121;SDS011;7139;48.114;11.442;2023-07-24T06:57:36;15.50;;;10.47;;
14121;SDS011;7139;48.114;11.442;2023-07-24T07:00:02;16.53;;;10.30;;
14121;SDS011;7139;48.114;11.442;2023-07-24T07:02:30;14.43;;;10.67;;
14121;SDS011;7139;48.114;11.442;2023-07-24T07:04:57;13.60;;;10.47;;
14121;SDS011;7139;48.114;11.442;2023-07-24T07:07:23;14.27;;;10.00;;
14121;SDS011;7139;48.114;11.442;2023-07-24T07:09:52;15.70;;;9.23;;
14121;SDS011;7139;48.114;11.442;2023-07-24T07:12:18;11.32;;;9.88;;
14121;SDS011;7139;48.114;11.442;2023-07-24T07:14:45;12.60;;;10.03;;
14121;SDS011;7139;48.114;11.442;2023-07-24T07:17:12;11.97;;;9.97;;
14121;SDS011;7139;48.114;11.442;2023-07-24T07:19:39;11.50;;;9.57;;
14121;SDS011;7139;48.114;11.442;2023-07-24T07:22:06;11.38;;;9.05;;
14121;SDS011;7139;48.114;11.442;2023-07-24T07:24:32;11.45;;;9.32;;
14121;SDS011;7139;48.114;11.442;2023-07-24T07:27:01;9.90;;;8.90;;
14121;SDS011;7139;48.114;11.442;2023-07-24T07:29:27;11.73;;;9.47;;
14121;SDS011;7139;48.114;11.442;2023-07-24T07:31:56;12.13;;;9.50;;
14121;SDS011;7139;48.114;11.442;2023-07-24T07:34:23;12.00;;;9.67;;
14121;SDS011;7139;48.114;11.442;2023-07-24T07:36:49;12.23;;;10.17;;
14121;SDS011;7139;48.114;11.442;2023-07-24T07:39:16;13.07;;;9.60;;
14121;SDS011;7139;48.114;11.442;2023-07-24T07:41:43;13.03;;;10.57;;
14121;SDS011;7139;48.114;11.442;2023-07-24T07:44:11;12.40;;;10.00;;
14121;SDS011;7139;48.114;11.442;2023-07-24T07:46:37;12.63;;;10.27;;
14121;SDS011;7139;48.114;11.442;2023-07-24T07:49:04;17.90;;;10.67;;
14121;SDS011;7139;48.114;11.442;2023-07-24T07:51:31;12.33;;;10.00;;
14121;SDS011;7139;48.114;11.442;2023-07-24T07:53:58;12.10;;;10.37;;
14121;SDS011;7139;48.114;11.442;2023-07-24T07:56:24;12.27;;;10.07;;
14121;SDS011;7139;48.114;11.442;2023-07-24T07:58:51;13.33;;;10.20;;
14121;SDS011;7139;48.114;11.442;2023-07-24T08:01:20;13.80;;;10.07;;
14121;SDS011;7139;48.114;11.442;2023-07-24T08:03:47;12.03;;;10.80;;
14121;SDS011;7139;48.114;11.442;2023-07-24T08:06:14;14.33;;;9.90;;
14121;SDS011;7139;48.114;11.442;2023-07-24T08:08:40;11.50;;;10.30;;
14121;SDS011;7139;48.114;11.442;2023-07-24T08:11:07;11.20;;;10.00;;
14121;SDS011;7139;48.114;11.442;2023-07-24T08:13:34;10.37;;;9.07;;
14121;SDS011;7139;48.114;11.442;2023-07-24T08:16:01;10.70;;;9.60;;
14121;SDS011;7139;48.114;11.442;2023-07-24T08:18:29;10.17;;;9.00;;
14121;SDS011;7139;48.114;11.442;2023-07-24T08:20:56;11.53;;;8.90;;
14121;SDS011;7139;48.114;11.442;2023-07-24T08:23:23;10.90;;;8.50;;
14121;SDS011;7139;48.114;11.442;2023-07-24T08:25:50;10.30;;;9.13;;
14121;SDS011;7139;48.114;11.442;2023-07-24T08:28:18;9.73;;;8.73;;
14121;SDS011;7139;48.114;11.442;2023-07-24T08:30:45;10.80;;;9.17;;
14121;SDS011;7139;48.114;11.442;2023-07-24T08:33:12;9.57;;;8.37;;
14121;SDS011;7139;48.114;11.442;2023-07-24T08:35:40;10.93;;;8.90;;
14121;SDS011;7139;48.114;11.442;2023-07-24T08:38:07;10.93;;;8.60;;
14121;SDS011;7139;48.114;11.442;2023-07-24T08:40:34;9.87;;;8.57;;
14121;SDS011;7139;48.114;11.442;2023-07-24T08:43:00;10.37;;;8.63;;
14121;SDS011;7139;48.114;11.442;2023-07-24T08:45:27;10.50;;;9.40;;
14121;SDS011;7139;48.114;11.442;2023-07-24T08:47:54;9.07;;;8.17;;
14121;SDS011;7139;48.114;11.442;2023-07-24T08:50:22;10.27;;;8.77;;
14121;SDS011;7139;48.114;11.442;2023-07-24T08:52:52;11.30;;;8.60;;
14121;SDS011;7139;48.114;11.442;2023-07-24T08:55:19;11.27;;;9.33;;
14121;SDS011;7139;48.114;11.442;2023-07-24T08:57:47;12.40;;;9.07;;
14121;SDS011;7139;48.114;11.442;2023-07-24T09:00:14;25.93;;;10.50;;
14121;SDS011;7139;48.114;11.442;2023-07-24T09:02:41;18.63;;;9.97;;
14121;SDS011;7139;48.114;11.442;2023-07-24T09:05:08;22.47;;;10.40;;
14121;SDS011;7139;48.114;11.442;2023-07-24T09:07:36;19.50;;;10.80;;
14121;SDS011;7139;48.114;11.442;2023-07-24T09:10:05;17.73;;;10.10;;
14121;SDS011;7139;48.114;11.442;2023-07-24T09:12:33;21.30;;;10.33;;
14121;SDS011;7139;48.114;11.442;2023-07-24T09:15:00;19.73;;;10.67;;
14121;SDS011;7139;48.114;11.442;2023-07-24T09:17:28;25.10;;;10.60;;
14121;SDS011;7139;48.114;11.442;2023-07-24T09:19:55;20.23;;;10.23;;
14121;SDS011;7139;48.114;11.442;2023-07-24T09:22:23;12.67;;;9.40;;
14121;SDS011;7139;48.114;11.442;2023-07-24T09:24:52;13.80;;;8.80;;
14121;SDS011;7139;48.114;11.442;2023-07-24T09:27:23;15.73;;;9.17;;
14121;SDS011;7139;48.114;11.442;2023-07-24T09:29:51;12.93;;;8.07;;
14121;SDS011;7139;48.114;11.442;2023-07-24T09:32:18;10.60;;;8.30;;
14121;SDS011;7139;48.114;11.442;2023-07-24T09:34:46;12.33;;;9.40;;
14121;SDS011;7139;48.114;11.442;2023-07-24T09:37:22;13.30;;;9.17;;
14121;SDS011;7139;48.114;11.442;2023-07-24T09:39:50;14.17;;;8.63;;
14121;SDS011;7139;48.114;11.442;2023-07-24T09:42:16;14.18;;;8.40;;
14121;SDS011;7139;48.114;11.442;2023-07-24T09:44:44;10.98;;;7.70;;
14121;SDS011;7139;48.114;11.442;2023-07-24T09:47:11;14.85;;;7.95;;
14121;SDS011;7139;48.114;11.442;2023-07-24T09:49:38;12.50;;;7.05;;
14121;SDS011;7139;48.114;11.442;2023-07-24T09:52:06;10.82;;;6.32;;
14121;SDS011;7139;48.114;11.442;2023-07-24T09:54:37;10.88;;;7.00;;
14121;SDS011;7139;48.114;11.442;2023-07-24T09:57:10;12.52;;;7.72;;
14121;SDS011;7139;48.114;11.442;2023-07-24T09:59:39;13.85;;;7.28;;
14121;SDS011;7139;48.114;11.442;2023-07-24T10:02:08;13.65;;;7.78;;
14121;SDS011;7139;48.114;11.442;2023-07-24T10:04:37;11.77;;;7.32;;
14121;SDS011;7139;48.114;11.442;2023-07-24T10:07:05;9.80;;;6.10;;
14121;SDS011;7139;48.114;11.442;2023-07-24T10:09:32;11.10;;;6.30;;
14121;SDS011;7139;48.114;11.442;2023-07-24T10:11:59;7.57;;;5.88;;
14121;SDS011;7139;48.114;11.442;2023-07-24T10:14:27;11.40;;;6.38;;
14121;SDS011;7139;48.114;11.442;2023-07-24T10:16:55;9.70;;;6.47;;
14121;SDS011;7139;48.114;11.442;2023-07-24T10:19:24;6.72;;;5.85;;
14121;SDS011;7139;48.114;11.442;2023-07-24T10:22:00;6.90;;;6.00;;
14121;SDS011;7139;48.114;11.442;2023-07-24T10:24:28;8.90;;;5.80;;
14121;SDS011;7139;48.114;11.442;2023-07-24T10:26:55;7.32;;;5.75;;
14121;SDS011;7139;48.114;11.442;2023-07-24T10:29:23;10.18;;;6.60;;
14121;SDS011;7139;48.114;11.442;2023-07-24T10:31:52;7.18;;;5.65;;
14121;SDS011;7139;48.114;11.442;2023-07-24T10:34:20;9.32;;;6.00;;
14121;SDS011;7139;48.114;11.442;2023-07-24T10:36:48;8.13;;;6.30;;
14121;SDS011;7139;48.114;11.442;2023-07-24T10:39:15;7.28;;;5.68;;
14121;SDS011;7139;48.114;11.442;2023-07-24T10:41:43;6.75;;;6.00;;
14121;SDS011;7139;48.114;11.442;2023-07-24T10:44:11;6.30;;;5.70;;
14121;SDS011;7139;48.114;11.442;2023-07-24T10:46:38;7.88;;;5.65;;
14121;SDS011;7139;48.114;11.442;2023-07-24T10:49:06;7.07;;;5.60;;
14121;SDS011;7139;48.114;11.442;2023-07-24T10:51:34;7.00;;;6.13;;
14121;SDS011;7139;48.114;11.442;2023-07-24T10:54:04;6.28;;;5.68;;
14121;SDS011;7139;48.114;11.442;2023-07-24T10:56:31;6.35;;;5.75;;
14121;SDS011;7139;48.114;11.442;2023-07-24T10:59:02;6.75;;;6.10;;
14121;SDS011;7139;48.114;11.442;2023-07-24T11:01:30;6.75;;;6.03;;
14121;SDS011;7139;48.114;11.442;2023-07-24T11:03:57;6.43;;;5.80;;
14121;SDS011;7139;48.114;11.442;2023-07-24T11:06:25;6.75;;;6.00;;
14121;SDS011;7139;48.114;11.442;2023-07-24T11:08:51;6.93;;;6.13;;
14121;SDS011;7139;48.114;11.442;2023-07-24T11:11:22;6.95;;;6.25;;
14121;SDS011;7139;48.114;11.442;2023-07-24T11:13:54;6.55;;;5.80;;
14121;SDS011;7139;48.114;11.442;2023-07-24T11:16:21;6.55;;;5.95;;
14121;SDS011;7139;48.114;11.442;2023-07-24T11:18:49;7.13;;;6.00;;
14121;SDS011;7139;48.114;11.442;2023-07-24T11:21:17;8.05;;;6.78;;
14121;SDS011;7139;48.114;11.442;2023-07-24T11:23:45;6.57;;;5.97;;
14121;SDS011;7139;48.114;11.442;2023-07-24T11:26:13;7.35;;;6.10;;
14121;SDS011;7139;48.114;11.442;2023-07-24T11:28:41;6.88;;;6.28;;
14121;SDS011;7139;48.114;11.442;2023-07-24T11:31:08;6.78;;;5.90;;
14121;SDS011;7139;48.114;11.442;2023-07-24T11:33:36;7.82;;;6.05;;
14121;SDS011;7139;48.114;11.442;2023-07-24T11:36:03;6.93;;;6.22;;
14121;SDS011;7139;48.114;11.442;2023-07-24T11:38:31;7.68;;;6.20;;
14121;SDS011;7139;48.114;11.442;2023-07-24T11:40:57;7.88;;;5.70;;
14121;SDS011;7139;48.114;11.442;2023-07-24T11:43:24;6.68;;;5.82;;
14121;SDS011;7139;48.114;11.442;2023-07-24T11:45:53;6.95;;;6.22;;
14121;SDS011;7139;48.114;11.442;2023-07-24T11:48:20;6.93;;;5.57;;
14121;SDS011;7139;48.114;11.442;2023-07-24T11:50:49;7.50;;;6.57;;
14121;SDS011;7139;48.114;11.442;2023-07-24T11:53:20;7.18;;;6.00;;
14121;SDS011;7139;48.114;11.442;2023-07-24T11:55:48;6.40;;;5.50;;
14121;SDS011;7139;48.114;11.442;2023-07-24T11:58:15;7.65;;;6.85;;
14121;SDS011;7139;48.114;11.442;2023-07-24T12:00:43;8.18;;;7.38;;
14121;SDS011;7139;48.114;11.442;2023-07-24T12:03:12;8.52;;;7.03;;
14121;SDS011;7139;48.114;11.442;2023-07-24T12:05:39;10.25;;;9.23;;
14121;SDS011;7139;48.114;11.442;2023-07-24T12:08:06;7.25;;;6.55;;
14121;SDS011;7139;48.114;11.442;2023-07-24T12:10:35;6.70;;;5.90;;
14121;SDS011;7139;48.114;11.442;2023-07-24T12:13:03;6.80;;;5.78;;
14121;SDS011;7139;48.114;11.442;2023-07-24T12:15:30;6.97;;;5.50;;
14121;SDS011;7139;48.114;11.442;2023-07-24T12:17:58;6.22;;;5.63;;
14121;SDS011;7139;48.114;11.442;2023-07-24T12:20:27;7.00;;;5.65;;
14121;SDS011;7139;48.114;11.442;2023-07-24T12:22:54;6.07;;;5.03;;
14121;SDS011;7139;48.114;11.442;2023-07-24T12:25:20;5.55;;;4.53;;
14121;SDS011;7139;48.114;11.442;2023-07-24T12:27:47;6.78;;;5.85;;
14121;SDS011;7139;48.114;11.442;2023-07-24T12:30:14;6.85;;;5.40;;
14121;SDS011;7139;48.114;11.442;2023-07-24T12:32:41;6.25;;;5.40;;
14121;SDS011;7139;48.114;11.442;2023-07-24T12:35:08;6.63;;;5.35;;
14121;SDS011;7139;48.114;11.442;2023-07-24T12:37:37;6.28;;;5.65;;
14121;SDS011;7139;48.114;11.442;2023-07-24T12:40:05;6.45;;;5.40;;
14121;SDS011;7139;48.114;11.442;2023-07-24T12:42:33;6.65;;;5.95;;
14121;SDS011;7139;48.114;11.442;2023-07-24T12:44:59;7.03;;;5.82;;
14121;SDS011;7139;48.114;11.442;2023-07-24T12:47:27;6.70;;;5.93;;
14121;SDS011;7139;48.114;11.442;2023-07-24T12:49:54;8.93;;;6.53;;
14121;SDS011;7139;48.114;11.442;2023-07-24T12:52:22;6.70;;;5.85;;
14121;SDS011;7139;48.114;11.442;2023-07-24T12:54:50;6.82;;;6.13;;
14121;SDS011;7139;48.114;11.442;2023-07-24T12:57:17;7.00;;;6.25;;
14121;SDS011;7139;48.114;11.442;2023-07-24T12:59:44;7.13;;;6.43;;
14121;SDS011;7139;48.114;11.442;2023-07-24T13:02:11;6.25;;;5.65;;
14121;SDS011;7139;48.114;11.442;2023-07-24T13:04:37;6.53;;;5.63;;
14121;SDS011;7139;48.114;11.442;2023-07-24T13:07:04;6.20;;;5.60;;
14121;SDS011;7139;48.114;11.442;2023-07-24T13:09:31;6.87;;;6.17;;
14121;SDS011;7139;48.114;11.442;2023-07-24T13:11:59;7.45;;;6.20;;
14121;SDS011;7139;48.114;11.442;2023-07-24T13:14:26;7.17;;;6.40;;
14121;SDS011;7139;48.114;11.442;2023-07-24T13:16:53;7.17;;;6.40;;
14121;SDS011;7139;48.114;11.442;2023-07-24T13:19:19;7.33;;;6.30;;
14121;SDS011;7139;48.114;11.442;2023-07-24T13:21:46;7.20;;;6.50;;
14121;SDS011;7139;48.114;11.442;2023-07-24T13:24:13;7.87;;;6.17;;
14121;SDS011;7139;48.114;11.442;2023-07-24T13:26:40;8.17;;;6.63;;
14121;SDS011;7139;48.114;11.442;2023-07-24T13:29:09;7.70;;;6.17;;
14121;SDS011;7139;48.114;11.442;2023-07-24T13:31:35;7.23;;;6.20;;
14121;SDS011;7139;48.114;11.442;2023-07-24T13:34:02;7.37;;;6.53;;
14121;SDS011;7139;48.114;11.442;2023-07-24T13:36:29;7.83;;;6.70;;
14121;SDS011;7139;48.114;11.442;2023-07-24T13:38:56;7.87;;;6.13;;
14121;SDS011;7139;48.114;11.442;2023-07-24T13:41:22;7.40;;;6.43;;
14121;SDS011;7139;48.114;11.442;2023-07-24T13:43:49;7.10;;;6.40;;
14121;SDS011;7139;48.114;11.442;2023-07-24T13:46:17;6.22;;;5.63;;
14121;SDS011;7139;48.114;11.442;2023-07-24T13:48:44;6.40;;;5.72;;
14121;SDS011;7139;48.114;11.442;2023-07-24T13:51:11;6.22;;;5.03;;
14121;SDS011;7139;48.114;11.442;2023-07-24T13:53:37;5.22;;;4.72;;
14121;SDS011;7139;48.114;11.442;2023-07-24T13:56:05;4.72;;;4.30;;
14121;SDS011;7139;48.114;11.442;2023-07-24T13:58:32;5.13;;;4.63;;
14121;SDS011;7139;48.114;11.442;2023-07-24T14:00:59;6.30;;;5.20;;
14121;SDS011;7139;48.114;11.442;2023-07-24T14:03:27;9.43;;;4.88;;
14121;SDS011;7139;48.114;11.442;2023-07-24T14:05:54;7.75;;;5.38;;
14121;SDS011;7139;48.114;11.442;2023-07-24T14:08:22;5.93;;;5.43;;
14121;SDS011;7139;48.114;11.442;2023-07-24T14:10:50;5.30;;;4.80;;
14121;SDS011;7139;48.114;11.442;2023-07-24T14:13:17;5.75;;;5.18;;
14121;SDS011;7139;48.114;11.442;2023-07-24T14:15:44;5.75;;;4.85;;
14121;SDS011;7139;48.114;11.442;2023-07-24T14:18:11;5.43;;;4.93;;
14121;SDS011;7139;48.114;11.442;2023-07-24T14:20:39;5.93;;;4.78;;
14121;SDS011;7139;48.114;11.442;2023-07-24T14:23:06;9.18;;;5.30;;
14121;SDS011;7139;48.114;11.442;2023-07-24T14:25:33;5.22;;;4.72;;
14121;SDS011;7139;48.114;11.442;2023-07-24T14:28:00;5.10;;;4.60;;
14121;SDS011;7139;48.114;11.442;2023-07-24T14:30:26;5.15;;;4.30;;
14121;SDS011;7139;48.114;11.442;2023-07-24T14:32:53;4.55;;;3.78;;
14121;SDS011;7139;48.114;11.442;2023-07-24T14:35:20;4.70;;;4.10;;
14121;SDS011;7139;48.114;11.442;2023-07-24T14:37:48;4.32;;;3.92;;